Dawn, Missouri
Current Conditions -  °F | °C
As of 10:55 PM on Saturday 20 Dec 2014 (Local Time) from KGPH Reporting Station
NA  
Wind Chill: 32°   Ceiling: NA
Heat Index: 36°   Visibility: 10mi
Dew Point: 32°   Wind: 5mph
Humidity: 87%   Direction: 140°SE
Pressure: 30.14"   Gusts: NA
Location:  39.67°N, 93.64°W
Report Text: KGPH 210455Z AUTO 14004KT 10SM 02/00 A3014 RMK AO2
Loading
Personal Weather Stations






























Interactive Weather Map New forecast layout! Learn more

10-Day Weather Forecast

Advertisements
Track Severe Weather on mobile